Time;durP1;ratioP1;P1;durP2;ratioP2;P2;SDS_P1;SDS_P2;PMS_P1;PMS_P2;Temp;Humidity;BMP_temperature;BMP_pressure;BME280_temperature;BME280_humidity;BME280_pressure;Samples;Min_cycle;Max_cycle;Signal;HPM_P1;HPM_P2
2022/06/23 00:00:55;;;;;;;5.05;2.58;;;;;;;;;;5058573;28;20032;-78
2022/06/23 00:03:23;;;;;;;3.75;3.10;;;;;;;;;;5067372;28;20036;-78
2022/06/23 00:05:53;;;;;;;3.38;2.63;;;;;;;;;;5062119;28;20043;-79
2022/06/23 00:08:19;;;;;;;3.95;2.50;;;;;;;;;;5062400;28;20032;-77
2022/06/23 00:10:49;;;;;;;3.85;2.55;;;;;;;;;;5069263;28;20031;-77
2022/06/23 00:13:35;;;;;;;3.70;2.45;;;;;;;;;;5061712;28;20032;-78
2022/06/23 00:16:02;;;;;;;3.30;2.88;;;;;;;;;;5057647;28;20035;-78
2022/06/23 00:18:32;;;;;;;2.80;2.50;;;;;;;;;;5060203;28;20107;-78
2022/06/23 00:21:19;;;;;;;3.47;2.70;;;;;;;;;;5073307;28;20029;-77
2022/06/23 00:23:47;;;;;;;2.95;2.58;;;;;;;;;;5056067;28;20128;-77
2022/06/23 00:26:15;;;;;;;3.55;2.65;;;;;;;;;;5064547;28;20025;-77
2022/06/23 00:28:41;;;;;;;3.35;2.72;;;;;;;;;;5060081;28;20074;-77
2022/06/23 00:31:08;;;;;;;4.28;2.85;;;;;;;;;;5059995;28;20071;-77
2022/06/23 00:33:45;;;;;;;3.80;3.00;;;;;;;;;;5059400;28;20055;-77
2022/06/23 00:36:15;;;;;;;4.50;3.47;;;;;;;;;;5051179;28;20079;-77
2022/06/23 00:38:41;;;;;;;3.17;2.42;;;;;;;;;;5058069;28;20020;-77
2022/06/23 00:41:15;;;;;;;4.07;2.78;;;;;;;;;;5055701;28;20029;-77
2022/06/23 00:43:43;;;;;;;5.25;2.60;;;;;;;;;;5055169;28;20509;-77
2022/06/23 00:46:15;;;;;;;3.03;2.70;;;;;;;;;;5056935;28;20863;-78
2022/06/23 00:48:44;;;;;;;3.90;2.83;;;;;;;;;;5060612;28;20027;-77
2022/06/23 00:51:26;;;;;;;3.83;2.50;;;;;;;;;;5053929;28;20036;-76
2022/06/23 00:54:02;;;;;;;4.20;2.60;;;;;;;;;;5056731;28;20036;-77
2022/06/23 00:56:28;;;;;;;2.97;2.55;;;;;;;;;;5061523;28;20021;-76
2022/06/23 00:59:00;;;;;;;3.22;2.70;;;;;;;;;;5056209;28;20029;-77
2022/06/23 01:01:39;;;;;;;4.25;2.53;;;;;;;;;;5059250;28;20024;-77
2022/06/23 01:04:13;;;;;;;3.72;2.47;;;;;;;;;;5059536;28;20031;-76
2022/06/23 01:06:41;;;;;;;2.90;2.60;;;;;;;;;;5070942;28;20482;-76
2022/06/23 01:09:22;;;;;;;4.65;3.25;;;;;;;;;;5056035;28;20055;-78
2022/06/23 01:11:52;;;;;;;5.43;2.83;;;;;;;;;;5056323;28;20027;-76
2022/06/23 01:14:41;;;;;;;2.90;2.60;;;;;;;;;;5055599;28;20033;-76
2022/06/23 01:17:14;;;;;;;5.45;2.50;;;;;;;;;;5050471;28;20029;-77
2022/06/23 01:20:00;;;;;;;3.67;2.30;;;;;;;;;;5058738;28;20161;-76
2022/06/23 01:22:42;;;;;;;3.17;2.53;;;;;;;;;;5055419;28;20056;-77
2022/06/23 01:25:26;;;;;;;3.53;2.45;;;;;;;;;;5055706;28;20516;-77
2022/06/23 01:28:09;;;;;;;2.85;2.30;;;;;;;;;;5059221;28;20028;-76
2022/06/23 01:30:38;;;;;;;3.83;2.50;;;;;;;;;;5058799;28;20032;-76
2022/06/23 01:33:25;;;;;;;3.00;2.22;;;;;;;;;;5050803;28;20025;-77
2022/06/23 01:36:12;;;;;;;3.65;2.58;;;;;;;;;;5059225;28;20028;-77
2022/06/23 01:39:00;;;;;;;3.03;2.25;;;;;;;;;;5060382;28;20043;-77
2022/06/23 01:41:33;;;;;;;2.47;2.28;;;;;;;;;;5055749;28;20417;-77
2022/06/23 01:44:09;;;;;;;3.70;2.42;;;;;;;;;;5048141;28;20033;-77
2022/06/23 01:46:36;;;;;;;2.53;2.30;;;;;;;;;;5050123;28;20482;-77
2022/06/23 01:49:05;;;;;;;2.67;2.30;;;;;;;;;;5052376;28;20029;-77
2022/06/23 01:51:33;;;;;;;4.05;2.47;;;;;;;;;;5062705;28;20023;-78
2022/06/23 01:54:17;;;;;;;2.78;2.30;;;;;;;;;;5058314;28;20033;-77
2022/06/23 01:56:47;;;;;;;2.30;2.00;;;;;;;;;;5060930;28;20154;-77
2022/06/23 01:59:13;;;;;;;2.92;2.30;;;;;;;;;;5058523;28;20440;-76
2022/06/23 02:01:39;;;;;;;2.58;2.30;;;;;;;;;;5058173;28;20051;-77
2022/06/23 02:04:14;;;;;;;2.90;2.50;;;;;;;;;;5059117;28;20166;-76
2022/06/23 02:06:50;;;;;;;3.75;2.40;;;;;;;;;;5056142;28;20020;-77
2022/06/23 02:09:37;;;;;;;3.05;2.22;;;;;;;;;;5051105;28;20032;-76
2022/06/23 02:12:04;;;;;;;3.30;2.08;;;;;;;;;;5054489;28;20071;-76
2022/06/23 02:14:43;;;;;;;2.45;2.17;;;;;;;;;;5062431;28;20020;-77
2022/06/23 02:17:28;;;;;;;3.15;2.38;;;;;;;;;;5063706;28;20044;-77
2022/06/23 02:19:55;;;;;;;2.97;2.38;;;;;;;;;;5053828;28;20659;-77
2022/06/23 02:22:28;;;;;;;4.75;2.60;;;;;;;;;;5058509;28;20455;-77
2022/06/23 02:25:04;;;;;;;4.05;2.55;;;;;;;;;;5054005;28;20032;-77
2022/06/23 02:27:33;;;;;;;2.58;2.20;;;;;;;;;;5060810;28;20028;-76
2022/06/23 02:30:01;;;;;;;3.45;2.60;;;;;;;;;;5058739;28;20017;-76
2022/06/23 02:32:46;;;;;;;3.80;2.45;;;;;;;;;;5064379;28;20467;-77
2022/06/23 02:35:12;;;;;;;3.45;2.33;;;;;;;;;;5065786;28;20032;-78
2022/06/23 02:37:56;;;;;;;3.05;2.20;;;;;;;;;;5066910;28;20121;-77
2022/06/23 02:40:22;;;;;;;2.85;2.20;;;;;;;;;;5062149;28;20082;-77
2022/06/23 02:42:51;;;;;;;3.45;2.30;;;;;;;;;;5064256;28;20548;-77
2022/06/23 02:45:36;;;;;;;3.03;2.30;;;;;;;;;;5063831;28;20028;-77
2022/06/23 02:48:15;;;;;;;3.92;2.92;;;;;;;;;;5065127;28;20436;-77
2022/06/23 02:50:58;;;;;;;3.35;2.08;;;;;;;;;;5056299;28;20376;-78
2022/06/23 02:53:36;;;;;;;2.60;2.28;;;;;;;;;;5052817;28;20248;-78
2022/06/23 02:56:09;;;;;;;4.68;2.10;;;;;;;;;;5055286;28;20086;-77
2022/06/23 02:58:38;;;;;;;2.58;1.90;;;;;;;;;;5058142;28;20349;-78
2022/06/23 03:01:06;;;;;;;2.70;2.30;;;;;;;;;;5050911;28;20021;-77
2022/06/23 03:03:41;;;;;;;2.40;2.15;;;;;;;;;;5061893;28;20475;-78
2022/06/23 03:06:14;;;;;;;2.80;2.15;;;;;;;;;;5060290;28;20051;-77
2022/06/23 03:08:47;;;;;;;2.45;2.08;;;;;;;;;;5065893;28;20028;-78
2022/06/23 03:11:53;;;;;;;4.25;2.10;;;;;;;;;;5059505;28;20029;-78
2022/06/23 03:14:36;;;;;;;1.75;1.65;;;;;;;;;;5058558;28;20041;-78
2022/06/23 03:17:21;;;;;;;2.00;1.80;;;;;;;;;;5059898;28;20459;-78
2022/06/23 03:20:06;;;;;;;1.98;1.77;;;;;;;;;;5053230;28;20017;-78
2022/06/23 03:22:36;;;;;;;2.47;2.00;;;;;;;;;;5054573;28;20525;-78
2022/06/23 03:25:07;;;;;;;2.35;2.10;;;;;;;;;;5063918;28;20029;-77
2022/06/23 03:27:42;;;;;;;4.05;2.20;;;;;;;;;;5063147;28;20031;-78
2022/06/23 03:30:27;;;;;;;2.65;2.10;;;;;;;;;;5061088;28;20037;-77
2022/06/23 03:32:58;;;;;;;2.75;2.08;;;;;;;;;;5061937;28;20032;-77
2022/06/23 03:35:37;;;;;;;2.17;1.98;;;;;;;;;;5060362;28;20379;-78
2022/06/23 03:38:06;;;;;;;3.45;2.50;;;;;;;;;;5059001;28;20025;-78
2022/06/23 03:43:33;;;;;;;2.25;2.05;;;;;;;;;;5057312;28;20500;-78
2022/06/23 03:45:59;;;;;;;;;;;;;;;;;;5062099;28;21201;-78
2022/06/23 03:48:31;;;;;;;2.38;2.00;;;;;;;;;;5063326;28;19949;-78
2022/06/23 03:51:04;;;;;;;2.25;2.05;;;;;;;;;;5053609;28;20498;-77
2022/06/23 03:53:59;;;;;;;2.88;1.90;;;;;;;;;;5067226;28;20465;-79
2022/06/23 03:56:31;;;;;;;2.38;1.98;;;;;;;;;;5048929;28;20032;-79
2022/06/23 03:59:02;;;;;;;2.60;2.15;;;;;;;;;;5061106;28;20016;-79
2022/06/23 04:01:36;;;;;;;2.53;2.33;;;;;;;;;;5069216;28;20023;-78
2022/06/23 04:04:12;;;;;;;2.38;2.17;;;;;;;;;;5061037;28;20140;-78
2022/06/23 04:06:38;;;;;;;3.40;1.98;;;;;;;;;;5064637;28;20024;-78
2022/06/23 04:09:08;;;;;;;2.63;2.33;;;;;;;;;;5056766;28;20535;-76
2022/06/23 04:11:54;;;;;;;2.60;2.10;;;;;;;;;;5065464;28;20457;-76
2022/06/23 04:14:49;;;;;;;3.35;1.98;;;;;;;;;;5058412;28;20458;-76
2022/06/23 04:17:25;;;;;;;2.60;2.20;;;;;;;;;;5015616;28;20068;-77
2022/06/23 04:20:02;;;;;;;2.67;2.03;;;;;;;;;;5062649;28;20379;-76
2022/06/23 04:22:37;;;;;;;3.80;2.15;;;;;;;;;;5061979;28;20037;-76
2022/06/23 04:25:03;;;;;;;;;;;;;;;;;;5053037;28;20024;-77
2022/06/23 04:27:32;;;;;;;2.45;1.90;;;;;;;;;;5061251;28;19966;-76
2022/06/23 04:29:59;;;;;;;2.60;2.20;;;;;;;;;;5058635;28;20016;-76
2022/06/23 04:32:31;;;;;;;3.10;2.45;;;;;;;;;;5061430;28;20071;-77
2022/06/23 04:35:06;;;;;;;2.45;2.20;;;;;;;;;;5059904;28;20040;-77
2022/06/23 04:38:01;;;;;;;3.05;2.40;;;;;;;;;;5062409;28;20156;-77
2022/06/23 04:40:27;;;;;;;2.40;2.13;;;;;;;;;;5015810;28;20037;-75
2022/06/23 04:42:57;;;;;;;2.53;2.30;;;;;;;;;;5068135;28;20119;-77
2022/06/23 04:45:23;;;;;;;2.70;2.30;;;;;;;;;;5055775;28;20055;-77
2022/06/23 04:47:52;;;;;;;4.50;2.20;;;;;;;;;;5064279;28;20453;-77
2022/06/23 04:50:30;;;;;;;3.88;2.35;;;;;;;;;;5063839;28;20021;-76
2022/06/23 04:52:58;;;;;;;4.05;2.65;;;;;;;;;;5056684;28;20043;-77
2022/06/23 04:55:26;;;;;;;2.72;2.22;;;;;;;;;;5059172;28;20092;-76
2022/06/23 04:58:00;;;;;;;2.60;2.40;;;;;;;;;;5064962;28;20482;-76
2022/06/23 05:00:32;;;;;;;2.55;2.35;;;;;;;;;;5065053;28;20037;-76
2022/06/23 05:03:05;;;;;;;3.20;2.50;;;;;;;;;;5066289;28;20540;-76
2022/06/23 05:05:32;;;;;;;2.30;2.10;;;;;;;;;;5061033;28;20040;-76
2022/06/23 05:08:07;;;;;;;3.08;2.42;;;;;;;;;;5062692;28;20021;-77
2022/06/23 05:10:36;;;;;;;3.13;2.60;;;;;;;;;;5063380;28;20028;-76
2022/06/23 05:13:04;;;;;;;3.30;2.58;;;;;;;;;;5058602;28;20025;-76
2022/06/23 05:15:43;;;;;;;3.72;2.50;;;;;;;;;;5061774;28;20033;-77
2022/06/23 05:18:12;;;;;;;3.10;2.63;;;;;;;;;;5059969;28;20040;-76
2022/06/23 05:20:41;;;;;;;4.03;2.80;;;;;;;;;;5059375;28;20021;-78
2022/06/23 05:23:13;;;;;;;5.80;2.83;;;;;;;;;;5056956;28;20053;-77
2022/06/23 05:25:43;;;;;;;3.17;2.50;;;;;;;;;;5061317;28;20028;-77
2022/06/23 05:28:13;;;;;;;5.68;3.20;;;;;;;;;;5059101;28;20043;-76
2022/06/23 05:30:41;;;;;;;3.10;2.78;;;;;;;;;;5069476;28;20031;-77
2022/06/23 05:33:16;;;;;;;3.90;2.53;;;;;;;;;;5061168;28;20020;-77
2022/06/23 05:35:42;;;;;;;;;;;;;;;;;;5060875;28;20028;-77
2022/06/23 05:38:15;;;;;;;3.05;2.60;;;;;;;;;;5059982;28;19914;-77
2022/06/23 05:40:49;;;;;;;3.38;2.78;;;;;;;;;;5059970;28;20390;-76
2022/06/23 05:43:17;;;;;;;3.50;2.85;;;;;;;;;;5050674;28;20090;-76
2022/06/23 05:45:45;;;;;;;3.50;2.95;;;;;;;;;;5078525;28;20020;-76
2022/06/23 05:48:34;;;;;;;3.58;2.78;;;;;;;;;;5057178;28;20028;-76
2022/06/23 05:51:08;;;;;;;3.30;2.70;;;;;;;;;;5074259;28;20051;-77
2022/06/23 05:53:46;;;;;;;3.40;3.00;;;;;;;;;;5065451;28;20020;-76
2022/06/23 05:56:15;;;;;;;3.45;2.92;;;;;;;;;;5072451;28;20020;-76
2022/06/23 05:58:46;;;;;;;4.22;2.80;;;;;;;;;;5065878;28;20465;-77
2022/06/23 06:01:26;;;;;;;3.55;2.72;;;;;;;;;;5061506;28;20051;-77
2022/06/23 06:03:59;;;;;;;4.10;3.00;;;;;;;;;;5061399;28;20085;-76
2022/06/23 06:06:25;;;;;;;3.60;2.83;;;;;;;;;;5065801;28;20111;-77
2022/06/23 06:11:38;;;;;;;3.17;2.60;;;;;;;;;;5064658;28;20035;-76
2022/06/23 06:14:05;;;;;;;3.03;2.70;;;;;;;;;;5068277;28;20145;-77
2022/06/23 06:16:32;;;;;;;3.20;2.70;;;;;;;;;;5067553;28;20036;-77
2022/06/23 06:18:58;;;;;;;5.25;3.42;;;;;;;;;;5063967;28;20515;-78
2022/06/23 06:21:26;;;;;;;3.05;2.67;;;;;;;;;;5064680;28;20419;-77
2022/06/23 06:23:58;;;;;;;3.55;3.00;;;;;;;;;;5059680;28;20442;-76
2022/06/23 06:26:29;;;;;;;3.63;3.15;;;;;;;;;;5060034;28;20028;-76
2022/06/23 06:28:57;;;;;;;3.47;2.58;;;;;;;;;;5068083;28;20090;-77
2022/06/23 06:31:26;;;;;;;5.57;3.22;;;;;;;;;;5068542;28;20032;-77
2022/06/23 06:33:52;;;;;;;3.88;2.78;;;;;;;;;;5080009;28;20736;-77
2022/06/23 06:36:24;;;;;;;3.58;3.00;;;;;;;;;;5065140;28;20290;-78
2022/06/23 06:38:50;;;;;;;6.10;3.40;;;;;;;;;;5066089;28;20032;-77
2022/06/23 06:41:16;;;;;;;4.25;3.15;;;;;;;;;;5062816;28;20072;-77
2022/06/23 06:43:42;;;;;;;4.18;3.50;;;;;;;;;;5064274;28;20096;-78
2022/06/23 06:46:08;;;;;;;4.90;3.58;;;;;;;;;;5073951;28;20469;-77
2022/06/23 06:48:36;;;;;;;3.53;3.03;;;;;;;;;;5065872;28;20020;-77
2022/06/23 06:51:08;;;;;;;5.95;3.58;;;;;;;;;;5077484;28;20445;-77
2022/06/23 06:53:46;;;;;;;5.10;3.53;;;;;;;;;;5082778;28;20028;-77
2022/06/23 06:56:16;;;;;;;3.40;2.92;;;;;;;;;;5068878;28;20035;-76
2022/06/23 06:58:44;;;;;;;4.30;3.15;;;;;;;;;;5069475;28;20025;-77
2022/06/23 07:01:19;;;;;;;4.10;3.15;;;;;;;;;;5062981;28;20035;-76
2022/06/23 07:03:47;;;;;;;5.32;3.50;;;;;;;;;;5067966;28;20064;-77
2022/06/23 07:06:32;;;;;;;4.97;3.28;;;;;;;;;;5062405;28;20027;-77
2022/06/23 07:09:05;;;;;;;4.93;3.20;;;;;;;;;;5069112;28;20085;-77
2022/06/23 07:11:42;;;;;;;4.68;3.50;;;;;;;;;;5076689;28;20020;-78
2022/06/23 07:14:14;;;;;;;8.80;3.95;;;;;;;;;;5071501;28;20372;-77
2022/06/23 07:16:49;;;;;;;4.43;3.78;;;;;;;;;;5052718;28;20029;-77
2022/06/23 07:19:15;;;;;;;;;;;;;;;;;;5055734;28;20032;-77
2022/06/23 07:22:07;;;;;;;4.53;3.80;;;;;;;;;;5065683;28;20613;-77
2022/06/23 07:24:47;;;;;;;5.47;4.28;;;;;;;;;;5062326;28;20050;-77
2022/06/23 07:27:26;;;;;;;4.97;4.18;;;;;;;;;;5064599;28;20021;-78
2022/06/23 07:29:57;;;;;;;6.85;4.40;;;;;;;;;;5066143;28;20096;-77
2022/06/23 07:32:34;;;;;;;5.05;4.22;;;;;;;;;;5059071;28;20025;-77
2022/06/23 07:35:03;;;;;;;6.20;5.10;;;;;;;;;;5062086;28;20033;-76
2022/06/23 07:37:31;;;;;;;5.85;4.40;;;;;;;;;;5064642;28;20047;-76
2022/06/23 07:40:02;;;;;;;5.22;4.18;;;;;;;;;;5063384;28;20029;-77
2022/06/23 07:42:34;;;;;;;5.43;4.47;;;;;;;;;;5063312;28;20029;-76
2022/06/23 07:45:02;;;;;;;5.20;4.30;;;;;;;;;;5062382;28;20032;-75
2022/06/23 07:47:29;;;;;;;5.88;4.97;;;;;;;;;;5057599;28;20029;-74
2022/06/23 07:49:55;;;;;;;6.13;4.90;;;;;;;;;;5061437;28;20040;-76
2022/06/23 07:52:23;;;;;;;7.05;5.28;;;;;;;;;;5063343;28;20021;-76
2022/06/23 07:54:49;;;;;;;7.45;5.25;;;;;;;;;;5062183;28;20490;-76
2022/06/23 07:57:16;;;;;;;5.88;5.00;;;;;;;;;;5059216;28;20032;-76
2022/06/23 07:59:47;;;;;;;8.70;5.30;;;;;;;;;;5061554;28;20033;-75
2022/06/23 08:02:19;;;;;;;8.43;5.15;;;;;;;;;;5060763;28;20040;-76
2022/06/23 08:04:55;;;;;;;6.22;4.63;;;;;;;;;;5066064;28;20109;-75
2022/06/23 08:07:21;;;;;;;6.53;4.97;;;;;;;;;;5062298;28;20111;-76
2022/06/23 08:09:52;;;;;;;8.93;5.32;;;;;;;;;;5062908;28;20115;-75
2022/06/23 08:18:11;;;;;;;6.40;4.68;;;;;;;;;;5062829;28;20502;-74
2022/06/23 08:20:39;;;;;;;7.78;5.78;;;;;;;;;;5067595;28;20093;-75
2022/06/23 08:23:07;;;;;;;8.38;6.28;;;;;;;;;;5059626;28;20048;-75
2022/06/23 08:25:34;;;;;;;9.15;6.70;;;;;;;;;;5075989;28;20086;-77
2022/06/23 08:28:00;;;;;;;8.15;6.80;;;;;;;;;;5062411;28;20639;-76
2022/06/23 08:30:27;;;;;;;8.45;6.18;;;;;;;;;;5060196;28;20163;-76
2022/06/23 08:32:54;;;;;;;7.90;5.95;;;;;;;;;;5063450;28;20506;-76
2022/06/23 08:35:29;;;;;;;7.93;6.18;;;;;;;;;;5059998;28;20037;-77
2022/06/23 08:38:01;;;;;;;8.75;6.93;;;;;;;;;;5058935;28;20120;-76
2022/06/23 08:40:46;;;;;;;10.82;8.25;;;;;;;;;;5063124;28;20526;-76
2022/06/23 08:43:17;;;;;;;9.63;8.15;;;;;;;;;;5063129;28;20513;-74
2022/06/23 08:45:50;;;;;;;9.20;7.20;;;;;;;;;;5058891;28;20028;-76
2022/06/23 08:48:28;;;;;;;9.82;7.43;;;;;;;;;;5064005;28;20032;-76
2022/06/23 08:51:08;;;;;;;9.15;7.32;;;;;;;;;;5078300;28;20051;-76
2022/06/23 08:53:55;;;;;;;10.77;8.32;;;;;;;;;;5062542;28;20029;-76
2022/06/23 08:56:33;;;;;;;11.90;9.00;;;;;;;;;;5062384;28;20135;-75
2022/06/23 08:59:17;;;;;;;10.25;8.43;;;;;;;;;;5060482;28;20530;-78
2022/06/23 09:01:50;;;;;;;9.90;8.52;;;;;;;;;;5064377;28;20137;-76
2022/06/23 09:04:26;;;;;;;11.48;8.75;;;;;;;;;;5076040;28;20028;-78
2022/06/23 09:06:56;;;;;;;12.45;8.48;;;;;;;;;;5076299;28;20021;-76
2022/06/23 09:09:57;;;;;;;16.00;10.82;;;;;;;;;;5063682;28;20024;-76
2022/06/23 09:12:32;;;;;;;13.63;10.10;;;;;;;;;;5059038;28;20028;-75
2022/06/23 09:14:58;;;;;;;14.77;10.75;;;;;;;;;;5057616;28;20048;-75
2022/06/23 09:17:36;;;;;;;14.98;10.73;;;;;;;;;;5059304;28;20048;-76
2022/06/23 09:20:02;;;;;;;15.20;10.40;;;;;;;;;;5058313;28;20029;-76
2022/06/23 09:22:47;;;;;;;12.98;9.77;;;;;;;;;;5059951;28;20052;-76
2022/06/23 09:25:20;;;;;;;13.53;9.47;;;;;;;;;;5059221;28;20216;-76
2022/06/23 09:28:01;;;;;;;15.65;11.13;;;;;;;;;;5060295;28;20033;-77
2022/06/23 09:30:37;;;;;;;13.98;9.90;;;;;;;;;;5057913;28;20021;-77
2022/06/23 09:33:09;;;;;;;15.65;9.70;;;;;;;;;;5056784;28;20024;-76
2022/06/23 09:35:47;;;;;;;14.63;10.27;;;;;;;;;;5059467;28;20143;-75
2022/06/23 09:38:33;;;;;;;14.70;10.93;;;;;;;;;;5061410;28;20028;-78
2022/06/23 09:40:59;;;;;;;12.20;9.68;;;;;;;;;;5060163;28;20122;-76
2022/06/23 09:43:25;;;;;;;11.82;9.35;;;;;;;;;;5061348;28;20554;-79
2022/06/23 09:45:58;;;;;;;14.10;10.55;;;;;;;;;;5058497;28;20127;-76
2022/06/23 09:48:24;;;;;;;13.00;10.35;;;;;;;;;;5061400;28;20048;-76
2022/06/23 09:50:57;;;;;;;12.80;10.00;;;;;;;;;;5058458;28;20032;-76
2022/06/23 09:53:23;;;;;;;12.60;9.68;;;;;;;;;;5059876;28;20040;-76
2022/06/23 09:55:52;;;;;;;11.93;9.50;;;;;;;;;;5058995;28;20406;-77
2022/06/23 09:58:29;;;;;;;13.70;9.68;;;;;;;;;;5060815;28;20063;-79
2022/06/23 10:01:10;;;;;;;12.40;9.38;;;;;;;;;;5058455;28;20494;-76
2022/06/23 10:03:49;;;;;;;14.93;9.93;;;;;;;;;;5072106;28;20470;-77
2022/06/23 10:06:33;;;;;;;14.32;10.60;;;;;;;;;;5075954;28;20029;-77
2022/06/23 10:09:02;;;;;;;14.23;9.75;;;;;;;;;;5056944;28;20024;-76
2022/06/23 10:11:34;;;;;;;13.25;10.40;;;;;;;;;;5059744;28;20611;-82
2022/06/23 10:14:01;;;;;;;10.68;9.00;;;;;;;;;;5060099;28;20051;-77
2022/06/23 10:16:30;;;;;;;11.13;9.00;;;;;;;;;;5059732;28;20039;-79
2022/06/23 10:19:09;;;;;;;13.63;10.23;;;;;;;;;;5074883;28;20538;-77
2022/06/23 10:21:53;;;;;;;13.63;10.00;;;;;;;;;;5057984;28;20057;-77
2022/06/23 10:24:38;;;;;;;12.82;10.75;;;;;;;;;;5057445;28;20089;-76
2022/06/23 10:27:04;;;;;;;11.45;9.05;;;;;;;;;;5062049;28;20028;-77
2022/06/23 10:29:39;;;;;;;9.48;7.60;;;;;;;;;;5064161;28;20159;-80
2022/06/23 10:32:24;;;;;;;10.85;8.05;;;;;;;;;;5059807;28;20329;-76
2022/06/23 10:34:59;;;;;;;13.88;9.15;;;;;;;;;;5058700;28;20032;-76
2022/06/23 10:37:41;;;;;;;11.40;9.45;;;;;;;;;;5058422;28;20032;-80
2022/06/23 10:40:10;;;;;;;11.95;8.30;;;;;;;;;;5075174;28;20024;-76
2022/06/23 10:42:36;;;;;;;12.93;9.73;;;;;;;;;;5059542;28;20040;-78
2022/06/23 10:45:22;;;;;;;14.65;9.07;;;;;;;;;;5060217;28;20233;-76
2022/06/23 10:48:06;;;;;;;11.45;9.13;;;;;;;;;;5059199;28;20033;-77
2022/06/23 10:50:47;;;;;;;10.82;8.38;;;;;;;;;;5057013;28;20025;-77
2022/06/23 10:53:16;;;;;;;12.85;7.32;;;;;;;;;;5061497;28;20043;-77
2022/06/23 10:55:51;;;;;;;9.02;6.90;;;;;;;;;;5061240;28;20059;-76
2022/06/23 10:58:30;;;;;;;10.02;6.80;;;;;;;;;;5064485;28;20040;-77
2022/06/23 11:00:59;;;;;;;12.20;8.05;;;;;;;;;;5063523;28;20032;-76
2022/06/23 11:03:44;;;;;;;10.13;7.68;;;;;;;;;;5060202;28;20078;-77
2022/06/23 11:06:13;;;;;;;9.27;7.00;;;;;;;;;;5064027;28;20496;-77
2022/06/23 11:08:54;;;;;;;10.10;7.78;;;;;;;;;;5057756;28;20025;-76
2022/06/23 11:11:23;;;;;;;9.13;6.68;;;;;;;;;;5063187;28;20048;-79
2022/06/23 11:14:05;;;;;;;9.07;6.53;;;;;;;;;;5060918;28;20028;-74
2022/06/23 11:16:34;;;;;;;9.18;6.60;;;;;;;;;;5055494;28;20038;-75
2022/06/23 11:19:06;;;;;;;7.65;6.57;;;;;;;;;;5058270;28;20033;-76
2022/06/23 11:21:59;;;;;;;6.82;5.80;;;;;;;;;;5057006;28;20053;-75
2022/06/23 11:24:37;;;;;;;7.38;6.22;;;;;;;;;;5051565;28;20044;-76
2022/06/23 11:27:18;;;;;;;10.05;5.85;;;;;;;;;;5060540;28;20021;-74
2022/06/23 11:29:55;;;;;;;8.38;5.65;;;;;;;;;;5061000;28;20428;-77
2022/06/23 11:32:45;;;;;;;5.47;4.85;;;;;;;;;;5075125;28;20020;-74
2022/06/23 11:35:24;;;;;;;8.82;4.45;;;;;;;;;;5062515;28;20031;-76
2022/06/23 11:37:53;;;;;;;5.47;4.93;;;;;;;;;;5073913;28;20031;-76
2022/06/23 11:40:28;;;;;;;7.15;4.72;;;;;;;;;;5060354;28;20513;-76
2022/06/23 11:43:03;;;;;;;5.95;5.03;;;;;;;;;;5063068;28;20039;-76
2022/06/23 11:45:43;;;;;;;6.88;4.65;;;;;;;;;;5056395;28;20079;-76
2022/06/23 11:48:18;;;;;;;5.90;4.40;;;;;;;;;;5060168;28;20025;-76
2022/06/23 11:50:49;;;;;;;5.68;4.68;;;;;;;;;;5061036;28;20025;-78
2022/06/23 11:53:21;;;;;;;7.15;4.82;;;;;;;;;;5062731;28;20055;-79
2022/06/23 11:55:50;;;;;;;5.55;4.78;;;;;;;;;;5058277;28;20340;-76
2022/06/23 11:58:35;;;;;;;5.65;4.40;;;;;;;;;;5060839;28;20058;-76
2022/06/23 12:01:01;;;;;;;;;;;;;;;;;;5060475;28;20055;-75
2022/06/23 12:03:52;;;;;;;4.40;4.00;;;;;;;;;;5074809;28;20739;-76
2022/06/23 12:06:32;;;;;;;7.03;4.47;;;;;;;;;;5058307;28;20073;-74
2022/06/23 12:09:06;;;;;;;5.05;4.53;;;;;;;;;;5075618;28;20029;-75
2022/06/23 12:11:33;;;;;;;5.45;3.90;;;;;;;;;;5058375;28;20094;-75
2022/06/23 12:14:00;;;;;;;4.63;3.95;;;;;;;;;;5058062;28;20477;-74
2022/06/23 12:16:26;;;;;;;4.88;4.10;;;;;;;;;;5059639;28;20041;-76
2022/06/23 12:18:59;;;;;;;5.57;4.70;;;;;;;;;;5056657;28;20382;-75
2022/06/23 12:21:44;;;;;;;6.15;4.38;;;;;;;;;;5057682;28;20538;-74
2022/06/23 12:24:22;;;;;;;5.68;4.88;;;;;;;;;;5061211;28;20115;-75
2022/06/23 12:26:56;;;;;;;6.55;4.45;;;;;;;;;;5059165;28;20083;-75
2022/06/23 12:29:26;;;;;;;6.90;4.93;;;;;;;;;;5060473;28;20032;-74
2022/06/23 12:32:06;;;;;;;5.03;4.00;;;;;;;;;;5058905;28;20035;-74
2022/06/23 12:34:32;;;;;;;7.60;4.40;;;;;;;;;;5059688;28;20127;-75
2022/06/23 12:37:07;;;;;;;5.93;4.65;;;;;;;;;;5063374;28;20047;-75
2022/06/23 12:39:41;;;;;;;5.28;4.30;;;;;;;;;;5060071;28;20033;-74
2022/06/23 12:42:11;;;;;;;7.53;4.50;;;;;;;;;;5058391;28;20493;-75
2022/06/23 12:44:46;;;;;;;4.40;4.00;;;;;;;;;;5061695;28;20111;-74
2022/06/23 12:47:12;;;;;;;5.60;4.25;;;;;;;;;;5060255;28;20442;-74
2022/06/23 12:49:53;;;;;;;5.45;4.60;;;;;;;;;;5060934;28;20440;-74
2022/06/23 12:52:23;;;;;;;5.03;4.47;;;;;;;;;;5059175;28;20051;-74
2022/06/23 12:55:07;;;;;;;4.85;4.35;;;;;;;;;;5060949;28;20107;-74
2022/06/23 12:58:09;;;;;;;7.82;4.72;;;;;;;;;;5056165;28;20507;-74
2022/06/23 13:00:35;;;;;;;5.70;4.82;;;;;;;;;;5036721;28;20076;-75
2022/06/23 13:03:14;;;;;;;7.72;4.85;;;;;;;;;;5049648;28;20081;-76
2022/06/23 13:05:46;;;;;;;5.13;4.57;;;;;;;;;;5062531;28;20040;-74
2022/06/23 13:08:17;;;;;;;7.40;4.65;;;;;;;;;;5061770;28;20047;-77
2022/06/23 13:11:02;;;;;;;5.68;3.92;;;;;;;;;;5075365;28;20507;-75
2022/06/23 13:13:28;;;;;;;;;;;;;;;;;;5076433;28;20036;-76
2022/06/23 13:15:59;;;;;;;4.60;3.78;;;;;;;;;;5057227;28;19915;-76
2022/06/23 13:18:45;;;;;;;5.05;4.53;;;;;;;;;;5058263;28;20082;-75
2022/06/23 13:21:14;;;;;;;4.50;3.72;;;;;;;;;;5072124;28;20036;-75
2022/06/23 13:23:52;;;;;;;5.57;4.05;;;;;;;;;;5057968;28;20490;-76
2022/06/23 13:26:21;;;;;;;5.25;4.10;;;;;;;;;;5055629;28;20548;-75
2022/06/23 13:28:48;;;;;;;5.05;3.95;;;;;;;;;;5059055;28;20032;-76
2022/06/23 13:31:20;;;;;;;5.45;4.40;;;;;;;;;;5053777;28;20052;-77
2022/06/23 13:33:50;;;;;;;6.28;4.10;;;;;;;;;;5059086;28;20051;-76
2022/06/23 13:36:21;;;;;;;5.20;4.05;;;;;;;;;;5058154;28;20051;-75
2022/06/23 13:39:02;;;;;;;5.20;3.55;;;;;;;;;;5059274;28;20427;-74
2022/06/23 13:41:35;;;;;;;4.40;3.80;;;;;;;;;;5057593;28;20024;-75
2022/06/23 13:44:10;;;;;;;5.00;3.80;;;;;;;;;;5057970;28;20043;-76
2022/06/23 13:46:50;;;;;;;4.47;3.50;;;;;;;;;;5057883;28;20035;-76
2022/06/23 13:49:22;;;;;;;3.63;3.20;;;;;;;;;;5059919;28;20024;-75
2022/06/23 13:51:57;;;;;;;3.90;3.20;;;;;;;;;;5057449;28;20021;-75
2022/06/23 13:54:23;;;;;;;6.00;4.03;;;;;;;;;;5058334;28;20478;-75
2022/06/23 13:57:08;;;;;;;4.03;3.53;;;;;;;;;;5058238;28;20406;-75
2022/06/23 13:59:34;;;;;;;4.57;3.67;;;;;;;;;;5057069;28;20028;-76
2022/06/23 14:02:02;;;;;;;7.43;3.60;;;;;;;;;;5057567;28;20059;-76
2022/06/23 14:04:34;;;;;;;12.63;3.75;;;;;;;;;;5054480;28;20021;-77
2022/06/23 14:07:19;;;;;;;4.03;3.50;;;;;;;;;;5054940;28;20024;-76
2022/06/23 14:09:50;;;;;;;5.65;3.67;;;;;;;;;;5056958;28;20443;-76
2022/06/23 14:12:21;;;;;;;5.05;3.30;;;;;;;;;;5059064;28;20995;-75
2022/06/23 14:14:50;;;;;;;4.45;3.90;;;;;;;;;;5052133;28;20054;-76
2022/06/23 14:17:19;;;;;;;3.65;3.25;;;;;;;;;;5059143;28;20387;-78
2022/06/23 14:19:50;;;;;;;3.55;3.20;;;;;;;;;;5058131;28;20446;-76
2022/06/23 14:22:35;;;;;;;4.20;3.13;;;;;;;;;;5053449;28;20628;-76
2022/06/23 14:25:05;;;;;;;3.72;3.20;;;;;;;;;;5053861;28;20623;-75
2022/06/23 14:27:38;;;;;;;3.78;3.22;;;;;;;;;;5059774;28;20490;-77
2022/06/23 14:30:11;;;;;;;8.73;3.17;;;;;;;;;;5058561;28;20029;-76
2022/06/23 14:32:56;;;;;;;3.92;3.22;;;;;;;;;;5061812;28;20028;-77
2022/06/23 14:35:39;;;;;;;3.40;3.10;;;;;;;;;;5059846;28;20025;-76
2022/06/23 14:38:11;;;;;;;3.83;3.42;;;;;;;;;;5059223;28;20033;-76
2022/06/23 14:40:43;;;;;;;4.10;3.70;;;;;;;;;;5060527;28;20028;-76
2022/06/23 14:43:24;;;;;;;5.28;3.42;;;;;;;;;;5059320;28;20043;-77
2022/06/23 14:45:56;;;;;;;4.07;3.63;;;;;;;;;;5061458;28;20074;-78
2022/06/23 14:48:41;;;;;;;3.72;3.20;;;;;;;;;;5060743;28;20098;-76
2022/06/23 14:51:13;;;;;;;3.83;3.28;;;;;;;;;;5059238;28;20024;-75
2022/06/23 14:53:49;;;;;;;5.18;3.50;;;;;;;;;;5060515;28;20028;-76
2022/06/23 14:56:24;;;;;;;3.40;3.00;;;;;;;;;;5057480;28;20398;-76
2022/06/23 14:58:51;;;;;;;5.72;2.95;;;;;;;;;;5061420;28;20784;-76
2022/06/23 15:01:26;;;;;;;3.47;3.08;;;;;;;;;;5060146;28;20082;-74
2022/06/23 15:04:02;;;;;;;4.80;3.25;;;;;;;;;;5057923;28;20111;-76
2022/06/23 15:06:45;;;;;;;4.03;3.33;;;;;;;;;;5060282;28;20103;-76
2022/06/23 15:09:14;;;;;;;3.28;2.83;;;;;;;;;;5058554;28;20024;-76
2022/06/23 15:11:48;;;;;;;3.50;3.00;;;;;;;;;;5059525;28;20021;-75
2022/06/23 15:14:26;;;;;;;3.45;3.15;;;;;;;;;;5059782;28;20020;-77
2022/06/23 15:16:55;;;;;;;5.10;3.00;;;;;;;;;;5059673;28;20067;-76
2022/06/23 15:19:40;;;;;;;4.80;3.33;;;;;;;;;;5059431;28;20035;-75
2022/06/23 15:25:01;;;;;;;2.90;2.60;;;;;;;;;;5056909;28;19981;-76
2022/06/23 15:27:30;;;;;;;3.72;2.90;;;;;;;;;;5059200;28;20498;-76
2022/06/23 15:30:09;;;;;;;3.97;3.17;;;;;;;;;;5057113;28;20553;-77
2022/06/23 15:32:35;;;;;;;7.60;3.10;;;;;;;;;;5062918;28;20035;-75
2022/06/23 15:35:09;;;;;;;3.33;3.03;;;;;;;;;;5061117;28;20025;-76
2022/06/23 15:37:55;;;;;;;3.70;3.05;;;;;;;;;;5077399;28;20033;-76